sensor_id;sensor_type;location;lat;lon;timestamp;P1;durP1;ratioP1;P2;durP2;ratioP2
78840;SDS011;68379;47.190;27.558;2023-07-31T00:01:41;4.00;;;1.50;;
78840;SDS011;68379;47.190;27.558;2023-07-31T00:04:13;2.40;;;1.40;;
78840;SDS011;68379;47.190;27.558;2023-07-31T00:06:44;2.30;;;1.50;;
78840;SDS011;68379;47.190;27.558;2023-07-31T00:09:16;1.90;;;1.20;;
78840;SDS011;68379;47.190;27.558;2023-07-31T00:11:48;2.30;;;1.90;;
78840;SDS011;68379;47.190;27.558;2023-07-31T00:14:20;2.60;;;1.50;;
78840;SDS011;68379;47.190;27.558;2023-07-31T00:16:52;2.90;;;1.60;;
78840;SDS011;68379;47.190;27.558;2023-07-31T00:19:23;3.30;;;2.00;;
78840;SDS011;68379;47.190;27.558;2023-07-31T00:21:55;3.70;;;1.40;;
78840;SDS011;68379;47.190;27.558;2023-07-31T00:24:26;2.30;;;1.60;;
78840;SDS011;68379;47.190;27.558;2023-07-31T00:26:58;2.80;;;1.50;;
78840;SDS011;68379;47.190;27.558;2023-07-31T00:29:29;3.20;;;1.70;;
78840;SDS011;68379;47.190;27.558;2023-07-31T00:32:01;2.90;;;1.60;;
78840;SDS011;68379;47.190;27.558;2023-07-31T00:34:33;2.80;;;1.40;;
78840;SDS011;68379;47.190;27.558;2023-07-31T00:37:05;2.00;;;1.40;;
78840;SDS011;68379;47.190;27.558;2023-07-31T00:39:36;3.20;;;1.50;;
78840;SDS011;68379;47.190;27.558;2023-07-31T00:42:08;2.80;;;1.50;;
78840;SDS011;68379;47.190;27.558;2023-07-31T00:44:40;1.70;;;1.10;;
78840;SDS011;68379;47.190;27.558;2023-07-31T00:47:11;2.50;;;1.30;;
78840;SDS011;68379;47.190;27.558;2023-07-31T00:49:43;3.00;;;1.60;;
78840;SDS011;68379;47.190;27.558;2023-07-31T00:52:15;2.90;;;1.50;;
78840;SDS011;68379;47.190;27.558;2023-07-31T00:54:47;5.30;;;1.70;;
78840;SDS011;68379;47.190;27.558;2023-07-31T00:57:19;3.20;;;1.50;;
78840;SDS011;68379;47.190;27.558;2023-07-31T00:59:52;2.70;;;1.60;;
78840;SDS011;68379;47.190;27.558;2023-07-31T01:02:23;3.10;;;1.20;;
78840;SDS011;68379;47.190;27.558;2023-07-31T01:04:55;2.10;;;1.60;;
78840;SDS011;68379;47.190;27.558;2023-07-31T01:07:31;2.80;;;1.70;;
78840;SDS011;68379;47.190;27.558;2023-07-31T01:10:20;3.40;;;1.70;;
78840;SDS011;68379;47.190;27.558;2023-07-31T01:12:55;2.80;;;1.60;;
78840;SDS011;68379;47.190;27.558;2023-07-31T01:15:28;3.20;;;1.80;;
78840;SDS011;68379;47.190;27.558;2023-07-31T01:18:00;3.00;;;1.70;;
78840;SDS011;68379;47.190;27.558;2023-07-31T01:20:32;2.40;;;1.60;;
78840;SDS011;68379;47.190;27.558;2023-07-31T01:23:22;2.80;;;1.50;;
78840;SDS011;68379;47.190;27.558;2023-07-31T01:26:07;2.80;;;1.30;;
78840;SDS011;68379;47.190;27.558;2023-07-31T01:28:53;3.00;;;1.50;;
78840;SDS011;68379;47.190;27.558;2023-07-31T01:31:31;2.10;;;1.30;;
78840;SDS011;68379;47.190;27.558;2023-07-31T01:34:04;2.50;;;1.70;;
78840;SDS011;68379;47.190;27.558;2023-07-31T01:36:38;2.90;;;1.60;;
78840;SDS011;68379;47.190;27.558;2023-07-31T01:39:10;2.90;;;1.80;;
78840;SDS011;68379;47.190;27.558;2023-07-31T01:41:43;3.40;;;1.80;;
78840;SDS011;68379;47.190;27.558;2023-07-31T01:44:15;3.20;;;1.70;;
78840;SDS011;68379;47.190;27.558;2023-07-31T01:46:47;3.10;;;1.50;;
78840;SDS011;68379;47.190;27.558;2023-07-31T01:49:19;3.10;;;1.50;;
78840;SDS011;68379;47.190;27.558;2023-07-31T01:51:50;3.10;;;1.90;;
78840;SDS011;68379;47.190;27.558;2023-07-31T01:54:22;2.40;;;1.90;;
78840;SDS011;68379;47.190;27.558;2023-07-31T01:56:54;2.10;;;1.80;;
78840;SDS011;68379;47.190;27.558;2023-07-31T01:59:26;2.80;;;1.50;;
78840;SDS011;68379;47.190;27.558;2023-07-31T02:01:57;2.90;;;1.60;;
78840;SDS011;68379;47.190;27.558;2023-07-31T02:04:28;2.60;;;1.90;;
78840;SDS011;68379;47.190;27.558;2023-07-31T02:07:00;3.40;;;1.40;;
78840;SDS011;68379;47.190;27.558;2023-07-31T02:09:32;2.80;;;1.80;;
78840;SDS011;68379;47.190;27.558;2023-07-31T03:01:29;3.20;;;1.60;;
78840;SDS011;68379;47.190;27.558;2023-07-31T03:03:59;2.60;;;1.50;;
78840;SDS011;68379;47.190;27.558;2023-07-31T03:06:29;2.80;;;1.70;;
78840;SDS011;68379;47.190;27.558;2023-07-31T03:08:58;2.20;;;1.40;;
78840;SDS011;68379;47.190;27.558;2023-07-31T03:11:26;3.20;;;1.80;;
78840;SDS011;68379;47.190;27.558;2023-07-31T03:13:55;2.70;;;1.80;;
78840;SDS011;68379;47.190;27.558;2023-07-31T03:16:25;2.50;;;1.90;;
78840;SDS011;68379;47.190;27.558;2023-07-31T03:18:54;2.70;;;1.40;;
78840;SDS011;68379;47.190;27.558;2023-07-31T03:21:23;2.70;;;1.60;;
78840;SDS011;68379;47.190;27.558;2023-07-31T03:23:52;2.10;;;1.70;;
78840;SDS011;68379;47.190;27.558;2023-07-31T03:26:21;2.20;;;1.50;;
78840;SDS011;68379;47.190;27.558;2023-07-31T03:28:50;2.40;;;1.60;;
78840;SDS011;68379;47.190;27.558;2023-07-31T03:31:19;3.20;;;1.50;;
78840;SDS011;68379;47.190;27.558;2023-07-31T03:33:48;2.40;;;1.40;;
78840;SDS011;68379;47.190;27.558;2023-07-31T03:36:17;3.70;;;1.60;;
78840;SDS011;68379;47.190;27.558;2023-07-31T03:38:46;2.10;;;1.20;;
78840;SDS011;68379;47.190;27.558;2023-07-31T03:41:15;3.40;;;1.50;;
78840;SDS011;68379;47.190;27.558;2023-07-31T03:43:44;3.10;;;1.50;;
78840;SDS011;68379;47.190;27.558;2023-07-31T03:46:13;1.70;;;1.50;;
78840;SDS011;68379;47.190;27.558;2023-07-31T03:48:42;2.20;;;1.40;;
78840;SDS011;68379;47.190;27.558;2023-07-31T03:51:11;3.30;;;1.40;;
78840;SDS011;68379;47.190;27.558;2023-07-31T03:53:40;2.00;;;1.30;;
78840;SDS011;68379;47.190;27.558;2023-07-31T03:56:09;2.30;;;1.70;;
78840;SDS011;68379;47.190;27.558;2023-07-31T03:58:38;2.40;;;1.40;;
78840;SDS011;68379;47.190;27.558;2023-07-31T04:01:07;2.20;;;1.40;;
78840;SDS011;68379;47.190;27.558;2023-07-31T04:03:36;2.10;;;1.10;;
78840;SDS011;68379;47.190;27.558;2023-07-31T04:06:05;2.10;;;1.20;;
78840;SDS011;68379;47.190;27.558;2023-07-31T04:08:34;2.30;;;1.50;;
78840;SDS011;68379;47.190;27.558;2023-07-31T04:11:04;2.90;;;1.40;;
78840;SDS011;68379;47.190;27.558;2023-07-31T04:13:32;2.70;;;1.30;;
78840;SDS011;68379;47.190;27.558;2023-07-31T04:16:01;2.10;;;1.30;;
78840;SDS011;68379;47.190;27.558;2023-07-31T04:18:31;2.90;;;1.80;;
78840;SDS011;68379;47.190;27.558;2023-07-31T04:21:00;3.20;;;1.90;;
78840;SDS011;68379;47.190;27.558;2023-07-31T04:23:29;3.30;;;1.70;;
78840;SDS011;68379;47.190;27.558;2023-07-31T04:25:58;3.40;;;1.60;;
78840;SDS011;68379;47.190;27.558;2023-07-31T04:28:27;3.80;;;1.80;;
78840;SDS011;68379;47.190;27.558;2023-07-31T04:30:58;2.30;;;1.30;;
78840;SDS011;68379;47.190;27.558;2023-07-31T04:33:27;3.70;;;2.00;;
78840;SDS011;68379;47.190;27.558;2023-07-31T04:35:56;2.60;;;1.60;;
78840;SDS011;68379;47.190;27.558;2023-07-31T04:38:26;3.00;;;1.60;;
78840;SDS011;68379;47.190;27.558;2023-07-31T04:40:55;2.50;;;1.50;;
78840;SDS011;68379;47.190;27.558;2023-07-31T04:43:24;2.90;;;1.50;;
78840;SDS011;68379;47.190;27.558;2023-07-31T04:45:53;3.50;;;2.20;;
78840;SDS011;68379;47.190;27.558;2023-07-31T04:48:22;2.40;;;1.40;;
78840;SDS011;68379;47.190;27.558;2023-07-31T04:50:51;2.50;;;1.50;;
78840;SDS011;68379;47.190;27.558;2023-07-31T04:53:20;4.40;;;1.70;;
78840;SDS011;68379;47.190;27.558;2023-07-31T04:55:49;3.40;;;1.70;;
78840;SDS011;68379;47.190;27.558;2023-07-31T04:58:18;3.90;;;1.70;;
78840;SDS011;68379;47.190;27.558;2023-07-31T05:00:47;3.40;;;1.50;;
78840;SDS011;68379;47.190;27.558;2023-07-31T05:03:16;2.80;;;1.20;;
78840;SDS011;68379;47.190;27.558;2023-07-31T05:05:45;3.00;;;1.70;;
78840;SDS011;68379;47.190;27.558;2023-07-31T05:08:14;2.80;;;1.90;;
78840;SDS011;68379;47.190;27.558;2023-07-31T05:10:44;3.70;;;1.70;;
78840;SDS011;68379;47.190;27.558;2023-07-31T05:13:13;3.50;;;1.80;;
78840;SDS011;68379;47.190;27.558;2023-07-31T05:15:42;3.00;;;1.60;;
78840;SDS011;68379;47.190;27.558;2023-07-31T05:18:11;3.90;;;1.70;;
78840;SDS011;68379;47.190;27.558;2023-07-31T05:20:40;2.70;;;1.90;;
78840;SDS011;68379;47.190;27.558;2023-07-31T05:23:12;2.60;;;1.90;;
78840;SDS011;68379;47.190;27.558;2023-07-31T05:25:41;3.20;;;1.60;;
78840;SDS011;68379;47.190;27.558;2023-07-31T05:28:11;3.60;;;2.00;;
78840;SDS011;68379;47.190;27.558;2023-07-31T05:30:40;3.50;;;2.00;;
78840;SDS011;68379;47.190;27.558;2023-07-31T05:33:09;5.00;;;2.20;;
78840;SDS011;68379;47.190;27.558;2023-07-31T05:35:38;3.40;;;2.40;;
78840;SDS011;68379;47.190;27.558;2023-07-31T05:38:07;4.00;;;2.60;;
78840;SDS011;68379;47.190;27.558;2023-07-31T05:40:36;3.50;;;2.40;;
78840;SDS011;68379;47.190;27.558;2023-07-31T05:43:05;4.80;;;2.60;;
78840;SDS011;68379;47.190;27.558;2023-07-31T05:45:35;4.50;;;3.20;;
78840;SDS011;68379;47.190;27.558;2023-07-31T05:48:04;4.90;;;3.00;;
78840;SDS011;68379;47.190;27.558;2023-07-31T05:50:33;5.50;;;2.90;;
78840;SDS011;68379;47.190;27.558;2023-07-31T05:53:04;3.80;;;2.80;;
78840;SDS011;68379;47.190;27.558;2023-07-31T05:55:33;3.40;;;2.40;;
78840;SDS011;68379;47.190;27.558;2023-07-31T05:58:02;6.00;;;3.20;;
78840;SDS011;68379;47.190;27.558;2023-07-31T06:00:31;4.50;;;2.60;;
78840;SDS011;68379;47.190;27.558;2023-07-31T06:03:00;3.10;;;2.10;;
78840;SDS011;68379;47.190;27.558;2023-07-31T06:05:29;4.90;;;2.60;;
78840;SDS011;68379;47.190;27.558;2023-07-31T06:07:59;5.10;;;2.40;;
78840;SDS011;68379;47.190;27.558;2023-07-31T06:10:28;3.90;;;2.70;;
78840;SDS011;68379;47.190;27.558;2023-07-31T06:12:57;6.30;;;3.00;;
78840;SDS011;68379;47.190;27.558;2023-07-31T06:15:26;4.60;;;3.20;;
78840;SDS011;68379;47.190;27.558;2023-07-31T06:17:55;4.30;;;2.90;;
78840;SDS011;68379;47.190;27.558;2023-07-31T06:20:25;5.00;;;2.90;;
78840;SDS011;68379;47.190;27.558;2023-07-31T06:22:55;5.50;;;3.50;;
78840;SDS011;68379;47.190;27.558;2023-07-31T06:25:24;5.00;;;3.30;;
78840;SDS011;68379;47.190;27.558;2023-07-31T06:27:52;4.90;;;3.40;;
78840;SDS011;68379;47.190;27.558;2023-07-31T06:30:21;6.80;;;2.70;;
78840;SDS011;68379;47.190;27.558;2023-07-31T06:32:50;4.40;;;2.90;;
78840;SDS011;68379;47.190;27.558;2023-07-31T06:35:20;4.50;;;3.20;;
78840;SDS011;68379;47.190;27.558;2023-07-31T06:37:49;4.80;;;3.00;;
78840;SDS011;68379;47.190;27.558;2023-07-31T06:40:18;5.60;;;3.20;;
78840;SDS011;68379;47.190;27.558;2023-07-31T06:42:47;2.80;;;1.80;;
78840;SDS011;68379;47.190;27.558;2023-07-31T06:45:16;4.70;;;3.00;;
78840;SDS011;68379;47.190;27.558;2023-07-31T06:47:48;5.80;;;3.60;;
78840;SDS011;68379;47.190;27.558;2023-07-31T06:50:17;3.10;;;1.80;;
78840;SDS011;68379;47.190;27.558;2023-07-31T06:52:46;3.00;;;2.00;;
78840;SDS011;68379;47.190;27.558;2023-07-31T06:55:19;2.70;;;1.70;;
78840;SDS011;68379;47.190;27.558;2023-07-31T06:57:50;5.60;;;2.30;;
78840;SDS011;68379;47.190;27.558;2023-07-31T07:00:21;4.70;;;2.60;;
78840;SDS011;68379;47.190;27.558;2023-07-31T07:02:51;3.30;;;1.60;;
78840;SDS011;68379;47.190;27.558;2023-07-31T07:05:20;2.80;;;1.90;;
78840;SDS011;68379;47.190;27.558;2023-07-31T07:07:49;2.20;;;1.50;;
78840;SDS011;68379;47.190;27.558;2023-07-31T07:10:19;3.30;;;1.70;;
78840;SDS011;68379;47.190;27.558;2023-07-31T07:12:48;3.80;;;1.50;;
78840;SDS011;68379;47.190;27.558;2023-07-31T07:15:17;2.10;;;1.60;;
78840;SDS011;68379;47.190;27.558;2023-07-31T07:17:46;2.40;;;1.70;;
78840;SDS011;68379;47.190;27.558;2023-07-31T07:20:15;2.30;;;1.70;;
78840;SDS011;68379;47.190;27.558;2023-07-31T07:22:46;1.90;;;1.30;;
78840;SDS011;68379;47.190;27.558;2023-07-31T07:25:16;3.80;;;1.60;;
78840;SDS011;68379;47.190;27.558;2023-07-31T07:27:44;2.40;;;1.60;;
78840;SDS011;68379;47.190;27.558;2023-07-31T07:30:13;2.20;;;1.40;;
78840;SDS011;68379;47.190;27.558;2023-07-31T07:32:42;5.50;;;1.60;;
78840;SDS011;68379;47.190;27.558;2023-07-31T07:35:11;3.50;;;2.10;;
78840;SDS011;68379;47.190;27.558;2023-07-31T07:37:41;3.20;;;1.80;;
78840;SDS011;68379;47.190;27.558;2023-07-31T07:40:10;2.80;;;1.60;;
78840;SDS011;68379;47.190;27.558;2023-07-31T07:42:39;2.80;;;1.50;;
78840;SDS011;68379;47.190;27.558;2023-07-31T07:45:09;2.90;;;1.70;;
78840;SDS011;68379;47.190;27.558;2023-07-31T07:47:40;3.80;;;1.80;;
78840;SDS011;68379;47.190;27.558;2023-07-31T07:50:10;2.40;;;1.50;;
78840;SDS011;68379;47.190;27.558;2023-07-31T07:52:39;4.10;;;1.90;;
78840;SDS011;68379;47.190;27.558;2023-07-31T07:55:08;4.60;;;1.60;;
78840;SDS011;68379;47.190;27.558;2023-07-31T07:57:38;2.30;;;1.70;;
78840;SDS011;68379;47.190;27.558;2023-07-31T08:00:08;2.10;;;1.70;;
78840;SDS011;68379;47.190;27.558;2023-07-31T08:02:38;2.60;;;1.40;;
78840;SDS011;68379;47.190;27.558;2023-07-31T08:05:08;2.70;;;1.60;;
78840;SDS011;68379;47.190;27.558;2023-07-31T08:07:37;2.10;;;1.60;;
78840;SDS011;68379;47.190;27.558;2023-07-31T08:10:06;2.00;;;1.70;;
78840;SDS011;68379;47.190;27.558;2023-07-31T08:12:36;3.80;;;1.50;;
78840;SDS011;68379;47.190;27.558;2023-07-31T08:15:06;2.50;;;1.80;;
78840;SDS011;68379;47.190;27.558;2023-07-31T08:17:36;3.20;;;1.80;;
78840;SDS011;68379;47.190;27.558;2023-07-31T08:20:06;4.50;;;2.60;;
78840;SDS011;68379;47.190;27.558;2023-07-31T08:22:37;3.30;;;2.10;;
78840;SDS011;68379;47.190;27.558;2023-07-31T08:25:07;3.70;;;2.10;;
78840;SDS011;68379;47.190;27.558;2023-07-31T08:27:36;3.40;;;2.00;;
78840;SDS011;68379;47.190;27.558;2023-07-31T08:30:06;2.80;;;2.40;;
78840;SDS011;68379;47.190;27.558;2023-07-31T08:32:36;5.10;;;2.90;;
78840;SDS011;68379;47.190;27.558;2023-07-31T08:35:06;3.50;;;2.70;;
78840;SDS011;68379;47.190;27.558;2023-07-31T08:37:35;3.00;;;2.00;;
78840;SDS011;68379;47.190;27.558;2023-07-31T08:40:06;4.50;;;2.40;;
78840;SDS011;68379;47.190;27.558;2023-07-31T08:42:44;4.10;;;3.00;;
78840;SDS011;68379;47.190;27.558;2023-07-31T08:45:15;5.90;;;2.70;;
78840;SDS011;68379;47.190;27.558;2023-07-31T08:47:45;5.10;;;3.10;;
78840;SDS011;68379;47.190;27.558;2023-07-31T08:50:16;5.40;;;2.90;;
78840;SDS011;68379;47.190;27.558;2023-07-31T08:52:46;3.10;;;2.70;;
78840;SDS011;68379;47.190;27.558;2023-07-31T08:55:17;5.20;;;2.80;;
78840;SDS011;68379;47.190;27.558;2023-07-31T08:57:51;3.70;;;3.10;;
78840;SDS011;68379;47.190;27.558;2023-07-31T09:00:21;8.90;;;2.80;;
78840;SDS011;68379;47.190;27.558;2023-07-31T09:02:54;5.80;;;3.30;;
78840;SDS011;68379;47.190;27.558;2023-07-31T09:05:29;4.70;;;2.90;;
78840;SDS011;68379;47.190;27.558;2023-07-31T09:07:59;4.10;;;3.00;;
78840;SDS011;68379;47.190;27.558;2023-07-31T09:10:29;4.30;;;3.40;;
78840;SDS011;68379;47.190;27.558;2023-07-31T09:12:58;5.10;;;3.20;;
78840;SDS011;68379;47.190;27.558;2023-07-31T09:15:27;5.70;;;3.00;;
78840;SDS011;68379;47.190;27.558;2023-07-31T09:18:00;5.40;;;2.70;;
78840;SDS011;68379;47.190;27.558;2023-07-31T09:20:31;4.60;;;3.50;;
78840;SDS011;68379;47.190;27.558;2023-07-31T09:23:07;3.80;;;3.00;;
78840;SDS011;68379;47.190;27.558;2023-07-31T09:25:38;3.60;;;2.90;;
78840;SDS011;68379;47.190;27.558;2023-07-31T09:28:08;4.10;;;3.10;;
78840;SDS011;68379;47.190;27.558;2023-07-31T09:30:48;4.90;;;3.20;;
78840;SDS011;68379;47.190;27.558;2023-07-31T09:33:19;4.50;;;3.90;;
78840;SDS011;68379;47.190;27.558;2023-07-31T09:35:48;6.40;;;3.30;;
78840;SDS011;68379;47.190;27.558;2023-07-31T09:38:17;4.90;;;3.50;;
78840;SDS011;68379;47.190;27.558;2023-07-31T09:40:46;6.90;;;3.40;;
78840;SDS011;68379;47.190;27.558;2023-07-31T09:43:17;6.00;;;3.60;;
78840;SDS011;68379;47.190;27.558;2023-07-31T09:45:48;5.50;;;3.20;;
78840;SDS011;68379;47.190;27.558;2023-07-31T09:48:24;4.60;;;3.20;;
78840;SDS011;68379;47.190;27.558;2023-07-31T09:50:57;4.50;;;3.60;;
78840;SDS011;68379;47.190;27.558;2023-07-31T09:53:33;4.60;;;3.40;;
78840;SDS011;68379;47.190;27.558;2023-07-31T09:56:02;4.40;;;3.00;;
78840;SDS011;68379;47.190;27.558;2023-07-31T09:58:32;5.00;;;3.30;;
78840;SDS011;68379;47.190;27.558;2023-07-31T10:01:03;5.40;;;3.20;;
78840;SDS011;68379;47.190;27.558;2023-07-31T10:03:35;4.60;;;3.30;;
78840;SDS011;68379;47.190;27.558;2023-07-31T10:06:06;4.90;;;2.90;;
78840;SDS011;68379;47.190;27.558;2023-07-31T10:08:39;4.90;;;3.20;;
78840;SDS011;68379;47.190;27.558;2023-07-31T10:11:10;4.30;;;3.60;;
78840;SDS011;68379;47.190;27.558;2023-07-31T10:13:42;8.50;;;4.30;;
78840;SDS011;68379;47.190;27.558;2023-07-31T10:16:11;4.40;;;3.30;;
78840;SDS011;68379;47.190;27.558;2023-07-31T10:18:43;4.30;;;3.40;;
78840;SDS011;68379;47.190;27.558;2023-07-31T10:21:13;4.30;;;3.40;;
78840;SDS011;68379;47.190;27.558;2023-07-31T10:23:43;5.00;;;3.30;;
78840;SDS011;68379;47.190;27.558;2023-07-31T10:26:13;3.50;;;2.80;;
78840;SDS011;68379;47.190;27.558;2023-07-31T10:28:44;4.40;;;3.40;;
78840;SDS011;68379;47.190;27.558;2023-07-31T10:31:14;4.40;;;3.60;;
78840;SDS011;68379;47.190;27.558;2023-07-31T10:33:46;7.20;;;3.60;;
78840;SDS011;68379;47.190;27.558;2023-07-31T10:36:17;7.60;;;3.80;;
78840;SDS011;68379;47.190;27.558;2023-07-31T10:38:49;5.00;;;3.50;;
78840;SDS011;68379;47.190;27.558;2023-07-31T10:41:18;6.20;;;3.50;;
78840;SDS011;68379;47.190;27.558;2023-07-31T10:43:57;4.90;;;3.20;;
78840;SDS011;68379;47.190;27.558;2023-07-31T10:46:28;7.40;;;3.70;;
78840;SDS011;68379;47.190;27.558;2023-07-31T10:49:00;5.20;;;3.50;;
78840;SDS011;68379;47.190;27.558;2023-07-31T10:51:34;4.10;;;2.80;;
78840;SDS011;68379;47.190;27.558;2023-07-31T10:56:45;7.60;;;3.20;;
78840;SDS011;68379;47.190;27.558;2023-07-31T10:59:19;4.00;;;2.80;;
78840;SDS011;68379;47.190;27.558;2023-07-31T11:01:55;7.60;;;3.30;;
78840;SDS011;68379;47.190;27.558;2023-07-31T11:04:25;6.30;;;3.30;;
78840;SDS011;68379;47.190;27.558;2023-07-31T11:06:57;5.70;;;3.20;;
78840;SDS011;68379;47.190;27.558;2023-07-31T11:11:58;7.70;;;3.70;;
78840;SDS011;68379;47.190;27.558;2023-07-31T11:14:27;4.20;;;3.30;;
78840;SDS011;68379;47.190;27.558;2023-07-31T11:16:56;5.70;;;3.60;;
78840;SDS011;68379;47.190;27.558;2023-07-31T11:19:25;6.40;;;3.80;;
78840;SDS011;68379;47.190;27.558;2023-07-31T11:21:54;3.90;;;3.50;;
78840;SDS011;68379;47.190;27.558;2023-07-31T11:24:24;3.90;;;3.50;;
78840;SDS011;68379;47.190;27.558;2023-07-31T11:26:53;8.70;;;4.30;;
78840;SDS011;68379;47.190;27.558;2023-07-31T11:29:21;8.00;;;3.40;;
78840;SDS011;68379;47.190;27.558;2023-07-31T11:31:56;7.40;;;4.00;;
78840;SDS011;68379;47.190;27.558;2023-07-31T11:34:25;5.30;;;3.90;;
78840;SDS011;68379;47.190;27.558;2023-07-31T11:36:54;6.00;;;3.60;;
78840;SDS011;68379;47.190;27.558;2023-07-31T11:39:23;7.30;;;3.90;;
78840;SDS011;68379;47.190;27.558;2023-07-31T11:41:54;4.90;;;3.70;;
78840;SDS011;68379;47.190;27.558;2023-07-31T11:44:28;5.80;;;3.60;;
78840;SDS011;68379;47.190;27.558;2023-07-31T11:47:06;5.00;;;3.90;;
78840;SDS011;68379;47.190;27.558;2023-07-31T11:49:35;12.40;;;5.30;;
78840;SDS011;68379;47.190;27.558;2023-07-31T11:52:06;5.40;;;4.30;;
78840;SDS011;68379;47.190;27.558;2023-07-31T11:54:35;5.10;;;4.50;;
78840;SDS011;68379;47.190;27.558;2023-07-31T11:57:05;8.00;;;4.40;;
78840;SDS011;68379;47.190;27.558;2023-07-31T11:59:35;8.30;;;4.50;;
78840;SDS011;68379;47.190;27.558;2023-07-31T12:02:05;7.90;;;5.00;;
78840;SDS011;68379;47.190;27.558;2023-07-31T12:04:35;6.70;;;4.60;;
78840;SDS011;68379;47.190;27.558;2023-07-31T12:07:05;8.20;;;4.80;;
78840;SDS011;68379;47.190;27.558;2023-07-31T12:09:34;7.50;;;5.10;;
78840;SDS011;68379;47.190;27.558;2023-07-31T12:12:05;7.70;;;4.80;;
78840;SDS011;68379;47.190;27.558;2023-07-31T12:14:41;8.80;;;4.80;;
78840;SDS011;68379;47.190;27.558;2023-07-31T12:17:10;5.80;;;4.80;;
78840;SDS011;68379;47.190;27.558;2023-07-31T12:19:39;6.20;;;4.20;;
78840;SDS011;68379;47.190;27.558;2023-07-31T12:22:12;6.80;;;4.60;;
78840;SDS011;68379;47.190;27.558;2023-07-31T12:27:11;9.00;;;5.10;;
78840;SDS011;68379;47.190;27.558;2023-07-31T12:29:42;10.10;;;5.20;;
78840;SDS011;68379;47.190;27.558;2023-07-31T12:32:21;8.40;;;4.90;;
78840;SDS011;68379;47.190;27.558;2023-07-31T12:34:51;6.50;;;5.30;;
78840;SDS011;68379;47.190;27.558;2023-07-31T12:37:21;7.90;;;4.60;;
78840;SDS011;68379;47.190;27.558;2023-07-31T12:39:50;6.70;;;5.10;;
78840;SDS011;68379;47.190;27.558;2023-07-31T12:42:19;9.10;;;5.10;;
78840;SDS011;68379;47.190;27.558;2023-07-31T12:44:48;7.10;;;5.10;;
78840;SDS011;68379;47.190;27.558;2023-07-31T12:47:16;7.80;;;5.80;;
78840;SDS011;68379;47.190;27.558;2023-07-31T12:49:45;7.10;;;5.20;;
78840;SDS011;68379;47.190;27.558;2023-07-31T12:52:14;5.40;;;4.50;;
78840;SDS011;68379;47.190;27.558;2023-07-31T12:54:43;4.60;;;4.10;;
78840;SDS011;68379;47.190;27.558;2023-07-31T12:57:12;5.40;;;4.90;;
78840;SDS011;68379;47.190;27.558;2023-07-31T12:59:41;6.60;;;5.10;;
78840;SDS011;68379;47.190;27.558;2023-07-31T13:02:10;5.90;;;4.80;;
78840;SDS011;68379;47.190;27.558;2023-07-31T13:04:39;5.80;;;4.80;;
78840;SDS011;68379;47.190;27.558;2023-07-31T13:07:08;5.70;;;5.10;;
78840;SDS011;68379;47.190;27.558;2023-07-31T13:09:37;7.00;;;5.10;;
78840;SDS011;68379;47.190;27.558;2023-07-31T13:12:06;5.60;;;5.10;;
78840;SDS011;68379;47.190;27.558;2023-07-31T13:14:36;7.10;;;5.40;;
78840;SDS011;68379;47.190;27.558;2023-07-31T13:17:05;6.10;;;5.40;;
78840;SDS011;68379;47.190;27.558;2023-07-31T13:19:34;10.80;;;5.50;;
78840;SDS011;68379;47.190;27.558;2023-07-31T13:22:03;6.10;;;5.20;;
78840;SDS011;68379;47.190;27.558;2023-07-31T13:24:32;6.20;;;5.50;;
78840;SDS011;68379;47.190;27.558;2023-07-31T13:27:01;8.50;;;6.80;;
78840;SDS011;68379;47.190;27.558;2023-07-31T13:29:31;8.10;;;6.30;;
78840;SDS011;68379;47.190;27.558;2023-07-31T13:32:00;6.10;;;5.50;;
78840;SDS011;68379;47.190;27.558;2023-07-31T13:34:29;7.20;;;6.20;;
78840;SDS011;68379;47.190;27.558;2023-07-31T13:36:58;6.90;;;6.20;;
78840;SDS011;68379;47.190;27.558;2023-07-31T13:39:27;8.10;;;7.40;;
78840;SDS011;68379;47.190;27.558;2023-07-31T13:41:56;9.90;;;6.00;;
78840;SDS011;68379;47.190;27.558;2023-07-31T13:44:25;6.90;;;6.30;;
78840;SDS011;68379;47.190;27.558;2023-07-31T13:46:55;7.40;;;6.60;;
78840;SDS011;68379;47.190;27.558;2023-07-31T13:49:24;9.00;;;6.90;;
78840;SDS011;68379;47.190;27.558;2023-07-31T13:51:53;7.40;;;6.70;;
78840;SDS011;68379;47.190;27.558;2023-07-31T13:54:22;8.30;;;7.00;;
78840;SDS011;68379;47.190;27.558;2023-07-31T13:56:52;7.30;;;6.50;;
78840;SDS011;68379;47.190;27.558;2023-07-31T13:59:21;9.90;;;7.10;;
78840;SDS011;68379;47.190;27.558;2023-07-31T14:01:50;9.00;;;7.30;;
78840;SDS011;68379;47.190;27.558;2023-07-31T14:04:21;8.10;;;6.30;;
78840;SDS011;68379;47.190;27.558;2023-07-31T14:06:50;10.30;;;7.20;;
78840;SDS011;68379;47.190;27.558;2023-07-31T14:09:19;7.70;;;6.90;;
78840;SDS011;68379;47.190;27.558;2023-07-31T14:11:48;7.70;;;6.50;;
78840;SDS011;68379;47.190;27.558;2023-07-31T14:14:17;6.80;;;6.10;;
78840;SDS011;68379;47.190;27.558;2023-07-31T14:16:46;6.70;;;6.00;;
78840;SDS011;68379;47.190;27.558;2023-07-31T14:19:15;10.40;;;6.90;;
78840;SDS011;68379;47.190;27.558;2023-07-31T14:21:44;9.00;;;6.30;;
78840;SDS011;68379;47.190;27.558;2023-07-31T14:24:13;8.20;;;6.60;;
78840;SDS011;68379;47.190;27.558;2023-07-31T14:26:42;8.90;;;7.00;;
78840;SDS011;68379;47.190;27.558;2023-07-31T14:29:11;8.20;;;7.40;;
78840;SDS011;68379;47.190;27.558;2023-07-31T14:31:40;7.60;;;6.70;;
78840;SDS011;68379;47.190;27.558;2023-07-31T14:34:09;7.60;;;6.80;;
78840;SDS011;68379;47.190;27.558;2023-07-31T14:36:38;8.00;;;7.20;;
78840;SDS011;68379;47.190;27.558;2023-07-31T14:39:06;8.30;;;7.00;;
78840;SDS011;68379;47.190;27.558;2023-07-31T14:41:36;7.90;;;7.10;;
78840;SDS011;68379;47.190;27.558;2023-07-31T14:44:04;9.80;;;6.90;;
78840;SDS011;68379;47.190;27.558;2023-07-31T14:46:33;10.30;;;7.10;;
78840;SDS011;68379;47.190;27.558;2023-07-31T14:49:02;8.10;;;7.10;;
78840;SDS011;68379;47.190;27.558;2023-07-31T14:51:31;7.50;;;6.80;;
78840;SDS011;68379;47.190;27.558;2023-07-31T14:54:00;7.90;;;7.00;;
78840;SDS011;68379;47.190;27.558;2023-07-31T14:56:29;8.10;;;6.70;;
78840;SDS011;68379;47.190;27.558;2023-07-31T14:58:58;7.50;;;6.20;;
78840;SDS011;68379;47.190;27.558;2023-07-31T15:01:27;8.30;;;7.00;;
78840;SDS011;68379;47.190;27.558;2023-07-31T15:03:56;7.00;;;6.40;;
78840;SDS011;68379;47.190;27.558;2023-07-31T15:06:26;8.20;;;6.70;;
78840;SDS011;68379;47.190;27.558;2023-07-31T15:08:55;8.70;;;7.00;;
78840;SDS011;68379;47.190;27.558;2023-07-31T15:11:23;7.50;;;6.60;;
78840;SDS011;68379;47.190;27.558;2023-07-31T15:13:52;7.20;;;6.30;;
78840;SDS011;68379;47.190;27.558;2023-07-31T15:16:22;7.40;;;6.70;;
78840;SDS011;68379;47.190;27.558;2023-07-31T15:18:51;10.80;;;6.70;;
78840;SDS011;68379;47.190;27.558;2023-07-31T15:21:20;7.70;;;6.00;;
78840;SDS011;68379;47.190;27.558;2023-07-31T15:23:49;9.80;;;6.00;;
78840;SDS011;68379;47.190;27.558;2023-07-31T15:26:18;8.10;;;5.30;;
78840;SDS011;68379;47.190;27.558;2023-07-31T15:28:49;5.80;;;5.30;;
78840;SDS011;68379;47.190;27.558;2023-07-31T15:31:24;7.60;;;5.50;;
78840;SDS011;68379;47.190;27.558;2023-07-31T15:33:53;6.30;;;5.40;;
78840;SDS011;68379;47.190;27.558;2023-07-31T15:36:22;8.40;;;5.40;;
78840;SDS011;68379;47.190;27.558;2023-07-31T15:38:51;5.80;;;5.00;;
78840;SDS011;68379;47.190;27.558;2023-07-31T15:41:20;4.90;;;4.50;;
78840;SDS011;68379;47.190;27.558;2023-07-31T15:43:50;6.80;;;4.60;;
78840;SDS011;68379;47.190;27.558;2023-07-31T15:46:19;6.80;;;4.50;;
78840;SDS011;68379;47.190;27.558;2023-07-31T15:48:48;5.80;;;4.90;;